Map

Track Data

SID SEASON NUMBER BASIN SUBBASIN NAME ISO_TIME NATURE LAT LON WMO_WIND WMO_PRES WMO_AGENCY TRACK_TYPE DIST2LAND LANDFALL IFLAG USA_AGENCY USA_ATCF_ID USA_LAT USA_LON USA_RECORD USA_STATUS USA_WIND USA_PRES USA_SSHS USA_R34_NE USA_R34_SE USA_R34_SW USA_R34_NW USA_R50_NE USA_R50_SE USA_R50_SW USA_R50_NW USA_R64_NE USA_R64_SE USA_R64_SW USA_R64_NW USA_POCI USA_ROCI USA_RMW USA_EYE TOKYO_LAT TOKYO_LON TOKYO_GRADE TOKYO_WIND TOKYO_PRES TOKYO_R50_DIR TOKYO_R50_LONG TOKYO_R50_SHORT TOKYO_R30_DIR TOKYO_R30_LONG TOKYO_R30_SHORT TOKYO_LAND CMA_LAT CMA_LON CMA_CAT CMA_WIND CMA_PRES HKO_LAT HKO_LON HKO_CAT HKO_WIND HKO_PRES NEWDELHI_LAT NEWDELHI_LON NEWDELHI_GRADE NEWDELHI_WIND NEWDELHI_PRES NEWDELHI_CI NEWDELHI_DP NEWDELHI_POCI REUNION_LAT REUNION_LON REUNION_TYPE REUNION_WIND REUNION_PRES REUNION_TNUM REUNION_CI REUNION_RMW REUNION_R34_NE REUNION_R34_SE REUNION_R34_SW REUNION_R34_NW REUNION_R50_NE REUNION_R50_SE REUNION_R50_SW REUNION_R50_NW REUNION_R64_NE REUNION_R64_SE REUNION_R64_SW REUNION_R64_NW BOM_LAT BOM_LON BOM_TYPE BOM_WIND BOM_PRES BOM_TNUM BOM_CI BOM_RMW BOM_R34_NE BOM_R34_SE BOM_R34_SW BOM_R34_NW BOM_R50_NE BOM_R50_SE BOM_R50_SW BOM_R50_NW BOM_R64_NE BOM_R64_SE BOM_R64_SW BOM_R64_NW BOM_ROCI BOM_POCI BOM_EYE BOM_POS_METHOD BOM_PRES_METHOD NADI_LAT NADI_LON NADI_CAT NADI_WIND NADI_PRES WELLINGTON_LAT WELLINGTON_LON WELLINGTON_WIND WELLINGTON_PRES DS824_LAT DS824_LON DS824_STAGE DS824_WIND DS824_PRES TD9636_LAT TD9636_LON TD9636_STAGE TD9636_WIND TD9636_PRES TD9635_LAT TD9635_LON TD9635_WIND TD9635_PRES TD9635_ROCI NEUMANN_LAT NEUMANN_LON NEUMANN_CLASS NEUMANN_WIND NEUMANN_PRES MLC_LAT MLC_LON MLC_CLASS MLC_WIND MLC_PRES USA_GUST BOM_GUST BOM_GUST_PER REUNION_GUST REUNION_GUST_PER USA_SEAHGT USA_SEARAD_NE USA_SEARAD_SE USA_SEARAD_SW USA_SEARAD_NW STORM_SPEED STORM_DIR
1993227N15258 1993 54 EP MM GREG 1993-08-15 00:00:00 TS 14.8000 -102.400 30 1009 hurdat_epa main 312 303 O_____________ hurdat_epa EP081993 14.8000 -102.400 TD 30 1009 -1 10 306
1993227N15258 1993 54 EP MM GREG 1993-08-15 03:00:00 TS 15.0802 -102.805 main 305 295 P_____________ EP081993 15.0802 -102.805 TD 30 1008 -1 10 308
1993227N15258 1993 54 EP MM GREG 1993-08-15 06:00:00 TS 15.4000 -103.200 30 1007 hurdat_epa main 295 267 O_____________ hurdat_epa EP081993 15.4000 -103.200 TD 30 1007 -1 10 313
1993227N15258 1993 54 EP MM GREG 1993-08-15 09:00:00 TS 15.7848 -103.585 main 267 239 P_____________ EP081993 15.7848 -103.585 TD 32 1006 -1 11 316
1993227N15258 1993 54 EP MM GREG 1993-08-15 12:00:00 TS 16.2000 -104.000 35 1005 hurdat_epa main 239 212 O_____________ hurdat_epa EP081993 16.2000 -104.000 TS 35 1005 0 12 314
1993227N15258 1993 54 EP MM GREG 1993-08-15 15:00:00 TS 16.6150 -104.485 main 217 207 P_____________ EP081993 16.6150 -104.485 TS 42 1002 0 13 310
1993227N15258 1993 54 EP MM GREG 1993-08-15 18:00:00 TS 17.0000 -105.000 50 999 hurdat_epa main 215 215 O_____________ hurdat_epa EP081993 17.0000 -105.000 TS 50 999 0 12 306
1993227N15258 1993 54 EP MM GREG 1993-08-15 21:00:00 TS 17.3224 -105.508 main 225 212 P_____________ EP081993 17.3224 -105.508 TS 52 996 0 11 302
1993227N15258 1993 54 EP MM GREG 1993-08-16 00:00:00 TS 17.6000 -106.000 55 994 hurdat_epa main 219 216 O_____________ hurdat_epa EP081993 17.6000 -106.000 TS 55 994 0 11 300
1993227N15258 1993 54 EP MM GREG 1993-08-16 03:00:00 TS 17.8650 -106.480 main 230 230 P_____________ EP081993 17.8650 -106.480 TS 57 993 0 10 300
1993227N15258 1993 54 EP MM GREG 1993-08-16 06:00:00 TS 18.1000 -106.900 60 992 hurdat_epa main 245 245 O_____________ hurdat_epa EP081993 18.1000 -106.900 TS 60 992 0 8 302
1993227N15258 1993 54 EP MM GREG 1993-08-16 09:00:00 TS 18.3149 -107.230 main 253 253 P_____________ EP081993 18.3149 -107.230 TS 65 987 1 7 305
1993227N15258 1993 54 EP MM GREG 1993-08-16 12:00:00 TS 18.5000 -107.500 70 982 hurdat_epa main 267 267 O_____________ hurdat_epa EP081993 18.5000 -107.500 HU 70 982 1 6 304
1993227N15258 1993 54 EP MM GREG 1993-08-16 15:00:00 TS 18.6575 -107.765 main 281 281 P_____________ EP081993 18.6575 -107.765 HU 80 976 1 6 302
1993227N15258 1993 54 EP MM GREG 1993-08-16 18:00:00 TS 18.8000 -108.000 90 970 hurdat_epa main 294 294 O_____________ hurdat_epa EP081993 18.8000 -108.000 HU 90 970 2 5 306
1993227N15258 1993 54 EP MM GREG 1993-08-16 21:00:00 TS 18.9650 -108.207 main 304 304 P_____________ EP081993 18.9650 -108.208 HU 90 970 2 5 309
1993227N15258 1993 54 EP MM GREG 1993-08-17 00:00:00 TS 19.1000 -108.400 90 970 hurdat_epa main 317 317 O_____________ hurdat_epa EP081993 19.1000 -108.400 HU 90 970 2 4 300
1993227N15258 1993 54 EP MM GREG 1993-08-17 03:00:00 TS 19.1724 -108.585 main 331 331 P_____________ EP081993 19.1724 -108.585 HU 87 971 2 4 285
1993227N15258 1993 54 EP MM GREG 1993-08-17 06:00:00 TS 19.2000 -108.800 85 972 hurdat_epa main 350 350 O_____________ hurdat_epa EP081993 19.2000 -108.800 HU 85 972 2 5 275
1993227N15258 1993 54 EP MM GREG 1993-08-17 09:00:00 TS 19.2150 -109.085 main 380 380 P_____________ EP081993 19.2150 -109.085 HU 82 973 1 6 270
1993227N15258 1993 54 EP MM GREG 1993-08-17 12:00:00 TS 19.2000 -109.400 80 975 hurdat_epa main 409 409 O_____________ hurdat_epa EP081993 19.2000 -109.400 HU 80 975 1 6 265
1993227N15258 1993 54 EP MM GREG 1993-08-17 15:00:00 TS 19.1650 -109.700 main 413 413 P_____________ EP081993 19.1650 -109.700 HU 80 976 1 6 260
1993227N15258 1993 54 EP MM GREG 1993-08-17 18:00:00 TS 19.1000 -110.000 80 978 hurdat_epa main 424 424 O_____________ hurdat_epa EP081993 19.1000 -110.000 HU 80 978 1 6 254
1993227N15258 1993 54 EP MM GREG 1993-08-17 21:00:00 TS 19.0075 -110.300 main 437 437 P_____________ EP081993 19.0075 -110.300 HU 77 979 1 6 251
1993227N15258 1993 54 EP MM GREG 1993-08-18 00:00:00 TS 18.9000 -110.600 75 980 hurdat_epa main 451 451 O_____________ hurdat_epa EP081993 18.9000 -110.600 HU 75 980 1 6 250
1993227N15258 1993 54 EP MM GREG 1993-08-18 03:00:00 TS 18.8074 -110.885 main 467 467 P_____________ EP081993 18.8074 -110.885 HU 75 981 1 6 251
1993227N15258 1993 54 EP MM GREG 1993-08-18 06:00:00 TS 18.7000 -111.200 75 982 hurdat_epa main 485 485 O_____________ hurdat_epa EP081993 18.7000 -111.200 HU 75 982 1 7 248
1993227N15258 1993 54 EP MM GREG 1993-08-18 09:00:00 TS 18.5425 -111.585 main 519 519 P_____________ EP081993 18.5425 -111.585 HU 72 982 1 8 248
1993227N15258 1993 54 EP MM GREG 1993-08-18 12:00:00 TS 18.4000 -112.000 70 983 hurdat_epa main 544 544 O_____________ hurdat_epa EP081993 18.4000 -112.000 HU 70 983 1 8 254
1993227N15258 1993 54 EP MM GREG 1993-08-18 15:00:00 TS 18.3274 -112.392 main 571 571 P_____________ EP081993 18.3274 -112.392 HU 77 979 1 8 262
1993227N15258 1993 54 EP MM GREG 1993-08-18 18:00:00 TS 18.3000 -112.800 85 975 hurdat_epa main 591 591 O_____________ hurdat_epa EP081993 18.3000 -112.800 HU 85 975 2 8 267
1993227N15258 1993 54 EP MM GREG 1993-08-18 21:00:00 TS 18.2924 -113.235 main 612 612 P_____________ EP081993 18.2924 -113.235 HU 90 970 2 9 270
1993227N15258 1993 54 EP MM GREG 1993-08-19 00:00:00 TS 18.3000 -113.700 95 965 hurdat_epa main 642 642 O_____________ hurdat_epa EP081993 18.3000 -113.700 HU 95 965 2 9 271
1993227N15258 1993 54 EP MM GREG 1993-08-19 03:00:00 TS 18.3074 -114.185 main 674 674 P_____________ EP081993 18.3074 -114.185 HU 97 962 3 10 270
1993227N15258 1993 54 EP MM GREG 1993-08-19 06:00:00 TS 18.3000 -114.700 100 960 hurdat_epa main 709 709 O_____________ hurdat_epa EP081993 18.3000 -114.700 HU 100 960 3 10 267
1993227N15258 1993 54 EP MM GREG 1993-08-19 09:00:00 TS 18.2500 -115.250 main 761 761 P_____________ EP081993 18.2500 -115.250 HU 107 954 3 11 265
1993227N15258 1993 54 EP MM GREG 1993-08-19 12:00:00 TS 18.2000 -115.800 115 949 hurdat_epa main 800 800 O_____________ hurdat_epa EP081993 18.2000 -115.800 HU 115 949 4 10 267
1993227N15258 1993 54 EP MM GREG 1993-08-19 15:00:00 TS 18.1923 -116.307 main 840 840 P_____________ EP081993 18.1923 -116.307 HU 115 948 4 10 270
1993227N15258 1993 54 EP MM GREG 1993-08-19 18:00:00 TS 18.2000 -116.800 115 948 hurdat_epa main 873 873 O_____________ hurdat_epa EP081993 18.2000 -116.800 HU 115 948 4 9 270
1993227N15258 1993 54 EP MM GREG 1993-08-19 21:00:00 TS 18.1924 -117.300 main 904 904 P_____________ EP081993 18.1924 -117.300 HU 115 948 4 10 270
1993227N15258 1993 54 EP MM GREG 1993-08-20 00:00:00 TS 18.2000 -117.800 115 948 hurdat_epa main 935 935 O_____________ hurdat_epa EP081993 18.2000 -117.800 HU 115 948 4 10 273
1993227N15258 1993 54 EP MM GREG 1993-08-20 03:00:00 TS 18.2424 -118.300 main 969 967 P_____________ EP081993 18.2424 -118.300 HU 115 948 4 10 276
1993227N15258 1993 54 EP MM GREG 1993-08-20 06:00:00 TS 18.3000 -118.800 115 948 hurdat_epa main 995 995 O_____________ hurdat_epa EP081993 18.3000 -118.800 HU 115 948 4 10 276
1993227N15258 1993 54 EP MM GREG 1993-08-20 09:00:00 TS 18.3499 -119.308 main 1032 1024 P_____________ EP081993 18.3499 -119.308 HU 115 948 4 10 276
1993227N15258 1993 54 EP MM GREG 1993-08-20 12:00:00 TS 18.4000 -119.800 115 949 hurdat_epa main 1062 1062 O_____________ hurdat_epa EP081993 18.4000 -119.800 HU 115 949 4 9 276
1993227N15258 1993 54 EP MM GREG 1993-08-20 15:00:00 TS 18.4498 -120.258 main 1100 1093 P_____________ EP081993 18.4498 -120.258 HU 112 951 3 9 277
1993227N15258 1993 54 EP MM GREG 1993-08-20 18:00:00 TS 18.5000 -120.700 110 953 hurdat_epa main 1125 1125 O_____________ hurdat_epa EP081993 18.5000 -120.700 HU 110 953 3 9 277
1993227N15258 1993 54 EP MM GREG 1993-08-20 21:00:00 TS 18.5574 -121.150 main 1150 1150 P_____________ EP081993 18.5574 -121.150 HU 107 954 3 9 277
1993227N15258 1993 54 EP MM GREG 1993-08-21 00:00:00 TS 18.6000 -121.600 105 956 hurdat_epa main 1192 1192 O_____________ hurdat_epa EP081993 18.6000 -121.600 HU 105 956 3 9 273
1993227N15258 1993 54 EP MM GREG 1993-08-21 03:00:00 TS 18.5999 -122.058 main 1234 1234 P_____________ EP081993 18.5999 -122.058 HU 102 958 3 9 270
1993227N15258 1993 54 EP MM GREG 1993-08-21 06:00:00 TS 18.6000 -122.500 100 960 hurdat_epa main 1268 1268 O_____________ hurdat_epa EP081993 18.6000 -122.500 HU 100 960 3 8 273
1993227N15258 1993 54 EP MM GREG 1993-08-21 09:00:00 TS 18.6423 -122.892 main 1295 1294 P_____________ EP081993 18.6423 -122.892 HU 97 963 3 8 278
1993227N15258 1993 54 EP MM GREG 1993-08-21 12:00:00 TS 18.7000 -123.300 95 966 hurdat_epa main 1314 1314 O_____________ hurdat_epa EP081993 18.7000 -123.300 HU 95 966 2 9 277
1993227N15258 1993 54 EP MM GREG 1993-08-21 15:00:00 TS 18.7425 -123.793 main 1348 1346 P_____________ EP081993 18.7425 -123.793 HU 92 967 2 10 276
1993227N15258 1993 54 EP MM GREG 1993-08-21 18:00:00 TS 18.8000 -124.300 90 969 hurdat_epa main 1374 1374 O_____________ hurdat_epa EP081993 18.8000 -124.300 HU 90 969 2 9 280
1993227N15258 1993 54 EP MM GREG 1993-08-21 21:00:00 TS 18.8998 -124.750 main 1394 1394 P_____________ EP081993 18.8998 -124.750 HU 90 969 2 9 283
1993227N15258 1993 54 EP MM GREG 1993-08-22 00:00:00 TS 19.0000 -125.200 90 970 hurdat_epa main 1423 1423 O_____________ hurdat_epa EP081993 19.0000 -125.200 HU 90 970 2 9 280
1993227N15258 1993 54 EP MM GREG 1993-08-22 03:00:00 TS 19.0575 -125.700 main 1452 1452 P_____________ EP081993 19.0575 -125.700 HU 90 970 2 10 276
1993227N15258 1993 54 EP MM GREG 1993-08-22 06:00:00 TS 19.1000 -126.200 90 971 hurdat_epa main 1491 1491 O_____________ hurdat_epa EP081993 19.1000 -126.200 HU 90 971 2 9 276
1993227N15258 1993 54 EP MM GREG 1993-08-22 09:00:00 TS 19.1499 -126.665 main 1530 1523 P_____________ EP081993 19.1499 -126.665 HU 87 972 2 9 277
1993227N15258 1993 54 EP MM GREG 1993-08-22 12:00:00 TS 19.2000 -127.100 85 973 hurdat_epa main 1555 1555 O_____________ hurdat_epa EP081993 19.2000 -127.100 HU 85 973 2 8 277
1993227N15258 1993 54 EP MM GREG 1993-08-22 15:00:00 TS 19.2424 -127.508 main 1587 1587 P_____________ EP081993 19.2424 -127.508 HU 82 974 1 8 278
1993227N15258 1993 54 EP MM GREG 1993-08-22 18:00:00 TS 19.3000 -127.900 80 975 hurdat_epa main 1613 1613 O_____________ hurdat_epa EP081993 19.3000 -127.900 HU 80 975 1 8 281
1993227N15258 1993 54 EP MM GREG 1993-08-22 21:00:00 TS 19.3925 -128.307 main 1640 1640 P_____________ EP081993 19.3925 -128.307 HU 80 976 1 8 285
1993227N15258 1993 54 EP MM GREG 1993-08-23 00:00:00 TS 19.5000 -128.700 80 977 hurdat_epa main 1667 1667 O_____________ hurdat_epa EP081993 19.5000 -128.700 HU 80 977 1 7 286
1993227N15258 1993 54 EP MM GREG 1993-08-23 03:00:00 TS 19.5924 -129.058 main 1694 1694 P_____________ EP081993 19.5924 -129.058 HU 80 977 1 7 287
1993227N15258 1993 54 EP MM GREG 1993-08-23 06:00:00 TS 19.7000 -129.400 80 978 hurdat_epa main 1714 1714 O_____________ hurdat_epa EP081993 19.7000 -129.400 HU 80 978 1 7 292
1993227N15258 1993 54 EP MM GREG 1993-08-23 09:00:00 TS 19.8498 -129.735 main 1734 1734 P_____________ EP081993 19.8498 -129.735 HU 77 978 1 7 295
1993227N15258 1993 54 EP MM GREG 1993-08-23 12:00:00 TS 20.0000 -130.100 75 979 hurdat_epa main 1757 1757 O_____________ hurdat_epa EP081993 20.0000 -130.100 HU 75 979 1 8 288
1993227N15258 1993 54 EP MM GREG 1993-08-23 15:00:00 TS 20.1076 -130.558 main 1795 1795 P_____________ EP081993 20.1076 -130.558 HU 75 979 1 9 283
1993227N15258 1993 54 EP MM GREG 1993-08-23 18:00:00 TS 20.2000 -131.000 75 979 hurdat_epa main 1826 1826 O_____________ hurdat_epa EP081993 20.2000 -131.000 HU 75 979 1 7 285
1993227N15258 1993 54 EP MM GREG 1993-08-23 21:00:00 TS 20.2998 -131.315 main 1847 1847 P_____________ EP081993 20.2998 -131.315 HU 75 979 1 6 290
1993227N15258 1993 54 EP MM GREG 1993-08-24 00:00:00 TS 20.4000 -131.600 75 980 hurdat_epa main 1869 1869 O_____________ hurdat_epa EP081993 20.4000 -131.600 HU 75 980 1 6 291
1993227N15258 1993 54 EP MM GREG 1993-08-24 03:00:00 TS 20.5225 -131.950 main 1891 1891 P_____________ EP081993 20.5225 -131.950 HU 75 980 1 7 287
1993227N15258 1993 54 EP MM GREG 1993-08-24 06:00:00 TS 20.6000 -132.300 75 980 hurdat_epa main 1922 1922 O_____________ hurdat_epa EP081993 20.6000 -132.300 HU 75 980 1 6 275
1993227N15258 1993 54 EP MM GREG 1993-08-24 09:00:00 TS 20.5724 -132.608 main 1944 1944 P_____________ EP081993 20.5724 -132.608 HU 75 980 1 6 260
1993227N15258 1993 54 EP MM GREG 1993-08-24 12:00:00 TS 20.5000 -132.900 75 981 hurdat_epa main 1971 1971 O_____________ hurdat_epa EP081993 20.5000 -132.900 HU 75 981 1 6 259
1993227N15258 1993 54 EP MM GREG 1993-08-24 15:00:00 TS 20.4575 -133.215 main 1990 1990 P_____________ EP081993 20.4575 -133.215 HU 75 981 1 6 260
1993227N15258 1993 54 EP MM GREG 1993-08-24 18:00:00 TS 20.4000 -133.500 75 981 hurdat_epa main 2017 2017 O_____________ hurdat_epa EP081993 20.4000 -133.500 HU 75 981 1 5 251
1993227N15258 1993 54 EP MM GREG 1993-08-24 21:00:00 TS 20.2999 -133.715 main 2039 2039 P_____________ EP081993 20.2999 -133.715 HU 72 982 1 4 242
1993227N15258 1993 54 EP MM GREG 1993-08-25 00:00:00 TS 20.2000 -133.900 70 983 hurdat_epa main 2060 2060 O_____________ hurdat_epa EP081993 20.2000 -133.900 HU 70 983 1 4 247
1993227N15258 1993 54 EP MM GREG 1993-08-25 03:00:00 TS 20.1500 -134.100 main 2082 2082 P_____________ EP081993 20.1500 -134.100 HU 70 984 1 4 255
1993227N15258 1993 54 EP MM GREG 1993-08-25 06:00:00 TS 20.1000 -134.300 70 985 hurdat_epa main 2094 2094 O_____________ hurdat_epa EP081993 20.1000 -134.300 HU 70 985 1 4 251
1993227N15258 1993 54 EP MM GREG 1993-08-25 09:00:00 TS 20.0150 -134.507 main 2116 2103 P_____________ EP081993 20.0150 -134.507 HU 67 986 1 4 242
1993227N15258 1993 54 EP MM GREG 1993-08-25 12:00:00 TS 19.9000 -134.700 65 987 hurdat_epa main 2103 2092 O_____________ hurdat_epa EP081993 19.9000 -134.700 HU 65 987 1 4 230
1993227N15258 1993 54 EP MM GREG 1993-08-25 15:00:00 TS 19.7425 -134.858 main 2083 2073 P_____________ EP081993 19.7425 -134.858 HU 65 988 1 4 223
1993227N15258 1993 54 EP MM GREG 1993-08-25 18:00:00 TS 19.6000 -135.000 65 989 hurdat_epa main 2073 2063 O_____________ hurdat_epa EP081993 19.6000 -135.000 HU 65 989 1 4 231
1993227N15258 1993 54 EP MM GREG 1993-08-25 21:00:00 TS 19.5200 -135.150 main 2063 2042 P_____________ EP081993 19.5200 -135.150 HU 62 990 0 3 250
1993227N15258 1993 54 EP MM GREG 1993-08-26 00:00:00 TS 19.5000 -135.300 60 992 hurdat_epa main 2042 2032 O_____________ hurdat_epa EP081993 19.5000 -135.300 TS 60 992 0 3 273
1993227N15258 1993 54 EP MM GREG 1993-08-26 03:00:00 TS 19.5350 -135.450 main 2032 2010 P_____________ EP081993 19.5350 -135.450 TS 55 994 0 3 290
1993227N15258 1993 54 EP MM GREG 1993-08-26 06:00:00 TS 19.6000 -135.600 50 996 hurdat_epa main 2010 2000 O_____________ hurdat_epa EP081993 19.6000 -135.600 TS 50 996 0 3 292
1993227N15258 1993 54 EP MM GREG 1993-08-26 09:00:00 TS 19.6424 -135.728 main 2000 1978 P_____________ EP081993 19.6424 -135.728 TS 50 997 0 3 290
1993227N15258 1993 54 EP MM GREG 1993-08-26 12:00:00 TS 19.7000 -135.900 50 998 hurdat_epa main 1978 1947 O_____________ hurdat_epa EP081993 19.7000 -135.900 TS 50 998 0 5 289
1993227N15258 1993 54 EP MM GREG 1993-08-26 15:00:00 TS 19.7926 -136.192 main 1947 1915 P_____________ EP081993 19.7926 -136.192 TS 47 998 0 6 289
1993227N15258 1993 54 EP MM GREG 1993-08-26 18:00:00 TS 19.9000 -136.500 45 999 hurdat_epa main 1915 1894 O_____________ hurdat_epa EP081993 19.9000 -136.500 TS 45 999 0 5 291
1993227N15258 1993 54 EP MM GREG 1993-08-26 21:00:00 TS 19.9774 -136.708 main 1894 1872 P_____________ EP081993 19.9774 -136.708 TS 45 999 0 4 298
1993227N15258 1993 54 EP MM GREG 1993-08-27 00:00:00 TS 20.1000 -136.900 45 1000 hurdat_epa main 1872 1851 O_____________ hurdat_epa EP081993 20.1000 -136.900 TS 45 1000 0 5 313
1993227N15258 1993 54 EP MM GREG 1993-08-27 03:00:00 TS 20.3424 -137.127 main 1851 1820 P_____________ EP081993 20.3424 -137.127 TS 45 1000 0 7 317
1993227N15258 1993 54 EP MM GREG 1993-08-27 06:00:00 TS 20.6000 -137.400 45 1001 hurdat_epa main 1820 1789 O_____________ hurdat_epa EP081993 20.6000 -137.400 TS 45 1001 0 7 307
1993227N15258 1993 54 EP MM GREG 1993-08-27 09:00:00 TS 20.7725 -137.728 main 1789 1748 P_____________ EP081993 20.7725 -137.728 TS 45 1001 0 7 295
1993227N15258 1993 54 EP MM GREG 1993-08-27 12:00:00 TS 20.9000 -138.100 45 1002 hurdat_epa main 1748 1707 O_____________ hurdat_epa EP081993 20.9000 -138.100 TS 45 1002 0 8 289
1993227N15258 1993 54 EP MM GREG 1993-08-27 15:00:00 TS 21.0150 -138.493 main 1707 1666 P_____________ EP081993 21.0150 -138.493 TS 40 1003 0 8 285
1993227N15258 1993 54 EP MM GREG 1993-08-27 18:00:00 TS 21.1000 -138.900 35 1005 hurdat_epa main 1666 1625 O_____________ hurdat_epa EP081993 21.1000 -138.900 TS 35 1005 0 8 280
1993227N15258 1993 54 EP MM GREG 1993-08-27 21:00:00 TS 21.1575 -139.323 main 1626 1584 P_____________ EP081993 21.1575 -139.323 TS 32 1006 -1 8 278
1993227N15258 1993 54 EP MM GREG 1993-08-28 00:00:00 TS 21.2000 -139.700 30 1008 hurdat_epa main 1584 1554 O_____________ hurdat_epa EP081993 21.2000 -139.700 TD 30 1008 -1 6 279
1993227N15258 1993 54 EP MM GREG 1993-08-28 03:00:00 TS 21.2574 -139.980 main 1554 1534 P_____________ EP081993 21.2574 -139.980 TD 30 1008 -1 5 280
1993227N15258 1993 54 EP CP GREG 1993-08-28 06:00:00 TS 21.2846 -140.215 30 1009 hurdat_epa main 1534 1513 O_____________ hurdat_epa EP081993 21.3000 -140.200 TD 30 1009 -1 5 273
1993227N15258 1993 54 EP CP GREG 1993-08-28 09:00:00 TS 21.2779 -140.464 main 1503 1482 P_____________ EP081993 21.3074 -140.408 TD 27 1009 -1 5 266
1993227N15258 1993 54 EP CP GREG 1993-08-28 12:00:00 TS 21.2500 -140.750 25 1010 hurdat_epa main 1482 1451 O_____________ hurdat_epa EP081993 21.3000 -140.600 TD 25 1010 -1 5 269
1993227N15258 1993 54 EP CP GREG 1993-08-28 15:00:00 TS 21.2733 -140.998 main 1451 1430 P_____________ EP081993 21.2976 -140.798 TD 25 1010 -1 5 276
1993227N15258 1993 54 EP CP GREG 1993-08-28 18:00:00 TS 21.3000 -141.250 25 1011 hurdat_epa main 1430 O_____________ hurdat_epa EP081993 21.3000 -141.000 TD 25 1011 -1 5 277

About IBTrACS Database

This database is a web-friendly format of International Best Track Archive for Climate Stewardship (IBTrACS), a global best track data archive curated by NOAA dating back to 1842.

Updated: 2021-10-21